sensor_id;sensor_type;location;lat;lon;timestamp;temperature;humidity
14741;DHT22;7462;53.530;9.414;2023-04-28T00:00:07;6.70;99.90
14741;DHT22;7462;53.530;9.414;2023-04-28T00:02:35;6.80;99.90
14741;DHT22;7462;53.530;9.414;2023-04-28T00:05:04;6.70;99.90
14741;DHT22;7462;53.530;9.414;2023-04-28T00:07:32;6.70;99.90
14741;DHT22;7462;53.530;9.414;2023-04-28T00:10:00;6.70;99.90
14741;DHT22;7462;53.530;9.414;2023-04-28T00:12:28;6.60;99.90
14741;DHT22;7462;53.530;9.414;2023-04-28T00:14:56;6.60;99.90
14741;DHT22;7462;53.530;9.414;2023-04-28T00:17:26;6.60;99.90
14741;DHT22;7462;53.530;9.414;2023-04-28T00:19:54;6.60;99.90
14741;DHT22;7462;53.530;9.414;2023-04-28T00:22:23;6.40;99.90
14741;DHT22;7462;53.530;9.414;2023-04-28T00:24:51;6.40;99.90
14741;DHT22;7462;53.530;9.414;2023-04-28T00:27:19;6.40;99.90
14741;DHT22;7462;53.530;9.414;2023-04-28T00:29:50;6.40;99.90
14741;DHT22;7462;53.530;9.414;2023-04-28T00:32:18;6.30;99.90
14741;DHT22;7462;53.530;9.414;2023-04-28T00:34:48;6.10;99.90
14741;DHT22;7462;53.530;9.414;2023-04-28T00:37:17;6.20;99.90
14741;DHT22;7462;53.530;9.414;2023-04-28T00:39:45;6.30;99.90
14741;DHT22;7462;53.530;9.414;2023-04-28T00:42:16;6.10;99.90
14741;DHT22;7462;53.530;9.414;2023-04-28T00:44:46;6.20;99.90
14741;DHT22;7462;53.530;9.414;2023-04-28T00:47:17;6.10;99.90
14741;DHT22;7462;53.530;9.414;2023-04-28T00:49:47;6.10;99.90
14741;DHT22;7462;53.530;9.414;2023-04-28T00:52:16;6.20;99.90
14741;DHT22;7462;53.530;9.414;2023-04-28T00:54:45;6.30;99.90
14741;DHT22;7462;53.530;9.414;2023-04-28T00:57:14;6.20;99.90
14741;DHT22;7462;53.530;9.414;2023-04-28T00:59:42;6.00;99.90
14741;DHT22;7462;53.530;9.414;2023-04-28T01:02:10;5.90;99.90
14741;DHT22;7462;53.530;9.414;2023-04-28T01:04:44;5.80;99.90
14741;DHT22;7462;53.530;9.414;2023-04-28T01:07:15;5.80;99.90
14741;DHT22;7462;53.530;9.414;2023-04-28T01:09:43;5.70;99.90
14741;DHT22;7462;53.530;9.414;2023-04-28T01:12:16;5.80;99.90
14741;DHT22;7462;53.530;9.414;2023-04-28T01:14:48;5.80;99.90
14741;DHT22;7462;53.530;9.414;2023-04-28T01:17:17;5.80;99.90
14741;DHT22;7462;53.530;9.414;2023-04-28T01:19:46;5.70;99.90
14741;DHT22;7462;53.530;9.414;2023-04-28T01:22:15;5.70;99.90
14741;DHT22;7462;53.530;9.414;2023-04-28T01:24:46;5.70;99.90
14741;DHT22;7462;53.530;9.414;2023-04-28T01:27:14;5.80;99.90
14741;DHT22;7462;53.530;9.414;2023-04-28T01:29:43;5.70;99.90
14741;DHT22;7462;53.530;9.414;2023-04-28T01:32:11;5.60;99.90
14741;DHT22;7462;53.530;9.414;2023-04-28T01:34:39;5.50;99.90
14741;DHT22;7462;53.530;9.414;2023-04-28T01:37:08;5.60;99.90
14741;DHT22;7462;53.530;9.414;2023-04-28T01:39:36;5.60;99.90
14741;DHT22;7462;53.530;9.414;2023-04-28T01:42:05;5.60;99.90
14741;DHT22;7462;53.530;9.414;2023-04-28T01:44:34;5.60;99.90
14741;DHT22;7462;53.530;9.414;2023-04-28T01:47:02;5.40;99.90
14741;DHT22;7462;53.530;9.414;2023-04-28T01:49:30;5.40;99.90
14741;DHT22;7462;53.530;9.414;2023-04-28T01:51:58;5.30;99.90
14741;DHT22;7462;53.530;9.414;2023-04-28T01:54:26;5.20;99.90
14741;DHT22;7462;53.530;9.414;2023-04-28T01:56:55;5.10;99.90
14741;DHT22;7462;53.530;9.414;2023-04-28T01:59:25;5.10;99.90
14741;DHT22;7462;53.530;9.414;2023-04-28T02:01:53;5.10;99.90
14741;DHT22;7462;53.530;9.414;2023-04-28T02:04:22;4.90;99.90
14741;DHT22;7462;53.530;9.414;2023-04-28T02:06:50;4.90;99.90
14741;DHT22;7462;53.530;9.414;2023-04-28T02:09:18;4.90;99.90
14741;DHT22;7462;53.530;9.414;2023-04-28T02:11:47;4.80;99.90
14741;DHT22;7462;53.530;9.414;2023-04-28T02:14:15;4.90;99.90
14741;DHT22;7462;53.530;9.414;2023-04-28T02:16:45;4.80;99.90
14741;DHT22;7462;53.530;9.414;2023-04-28T02:19:14;4.80;99.90
14741;DHT22;7462;53.530;9.414;2023-04-28T02:21:42;4.80;99.90
14741;DHT22;7462;53.530;9.414;2023-04-28T02:24:10;4.90;99.90
14741;DHT22;7462;53.530;9.414;2023-04-28T02:26:38;4.90;99.90
14741;DHT22;7462;53.530;9.414;2023-04-28T02:29:07;5.00;99.90
14741;DHT22;7462;53.530;9.414;2023-04-28T02:31:35;4.90;99.90
14741;DHT22;7462;53.530;9.414;2023-04-28T02:34:04;4.90;99.90
14741;DHT22;7462;53.530;9.414;2023-04-28T02:36:32;4.90;99.90
14741;DHT22;7462;53.530;9.414;2023-04-28T02:39:00;4.80;99.90
14741;DHT22;7462;53.530;9.414;2023-04-28T02:41:28;4.90;99.90
14741;DHT22;7462;53.530;9.414;2023-04-28T02:43:57;4.90;99.90
14741;DHT22;7462;53.530;9.414;2023-04-28T02:46:25;5.00;99.90
14741;DHT22;7462;53.530;9.414;2023-04-28T02:48:53;5.00;99.90
14741;DHT22;7462;53.530;9.414;2023-04-28T02:51:23;4.90;99.90
14741;DHT22;7462;53.530;9.414;2023-04-28T02:53:52;5.00;99.90
14741;DHT22;7462;53.530;9.414;2023-04-28T02:56:21;5.00;99.90
14741;DHT22;7462;53.530;9.414;2023-04-28T02:58:50;5.00;99.90
14741;DHT22;7462;53.530;9.414;2023-04-28T03:01:18;5.00;99.90
14741;DHT22;7462;53.530;9.414;2023-04-28T03:03:46;5.00;99.90
14741;DHT22;7462;53.530;9.414;2023-04-28T03:06:14;5.10;99.90
14741;DHT22;7462;53.530;9.414;2023-04-28T03:08:44;5.10;99.90
14741;DHT22;7462;53.530;9.414;2023-04-28T03:11:12;5.10;99.90
14741;DHT22;7462;53.530;9.414;2023-04-28T03:13:40;5.20;99.90
14741;DHT22;7462;53.530;9.414;2023-04-28T03:16:08;5.30;99.90
14741;DHT22;7462;53.530;9.414;2023-04-28T03:18:36;5.10;99.90
14741;DHT22;7462;53.530;9.414;2023-04-28T03:21:04;5.10;99.90
14741;DHT22;7462;53.530;9.414;2023-04-28T03:23:33;5.20;99.90
14741;DHT22;7462;53.530;9.414;2023-04-28T03:26:02;5.10;99.90
14741;DHT22;7462;53.530;9.414;2023-04-28T03:28:31;5.20;99.90
14741;DHT22;7462;53.530;9.414;2023-04-28T03:30:59;5.10;99.90
14741;DHT22;7462;53.530;9.414;2023-04-28T03:33:28;5.10;99.90
14741;DHT22;7462;53.530;9.414;2023-04-28T03:35:58;5.10;99.90
14741;DHT22;7462;53.530;9.414;2023-04-28T03:38:26;5.00;99.90
14741;DHT22;7462;53.530;9.414;2023-04-28T03:40:54;5.00;99.90
14741;DHT22;7462;53.530;9.414;2023-04-28T03:43:42;5.10;99.90
14741;DHT22;7462;53.530;9.414;2023-04-28T03:46:20;5.10;99.90
14741;DHT22;7462;53.530;9.414;2023-04-28T03:48:49;5.10;99.90
14741;DHT22;7462;53.530;9.414;2023-04-28T03:51:18;5.10;99.90
14741;DHT22;7462;53.530;9.414;2023-04-28T03:53:46;5.20;99.90
14741;DHT22;7462;53.530;9.414;2023-04-28T03:56:14;5.10;99.90
14741;DHT22;7462;53.530;9.414;2023-04-28T03:58:44;5.00;99.90
14741;DHT22;7462;53.530;9.414;2023-04-28T04:01:12;5.10;99.90
14741;DHT22;7462;53.530;9.414;2023-04-28T04:03:40;5.10;99.90
14741;DHT22;7462;53.530;9.414;2023-04-28T04:06:08;5.10;99.90
14741;DHT22;7462;53.530;9.414;2023-04-28T04:08:37;5.10;99.90
14741;DHT22;7462;53.530;9.414;2023-04-28T04:11:05;5.20;99.90
14741;DHT22;7462;53.530;9.414;2023-04-28T04:13:34;5.10;99.90
14741;DHT22;7462;53.530;9.414;2023-04-28T04:16:07;5.10;99.90
14741;DHT22;7462;53.530;9.414;2023-04-28T04:18:35;5.20;99.90
14741;DHT22;7462;53.530;9.414;2023-04-28T04:21:29;5.10;99.90
14741;DHT22;7462;53.530;9.414;2023-04-28T04:23:58;5.10;99.90
14741;DHT22;7462;53.530;9.414;2023-04-28T04:26:27;5.10;99.90
14741;DHT22;7462;53.530;9.414;2023-04-28T04:28:55;5.20;99.90
14741;DHT22;7462;53.530;9.414;2023-04-28T04:31:24;5.20;99.90
14741;DHT22;7462;53.530;9.414;2023-04-28T04:33:52;5.20;99.90
14741;DHT22;7462;53.530;9.414;2023-04-28T04:36:21;5.30;99.90
14741;DHT22;7462;53.530;9.414;2023-04-28T04:38:49;5.30;99.90
14741;DHT22;7462;53.530;9.414;2023-04-28T04:41:21;5.40;99.90
14741;DHT22;7462;53.530;9.414;2023-04-28T04:43:57;5.40;99.90
14741;DHT22;7462;53.530;9.414;2023-04-28T04:46:31;5.40;99.90
14741;DHT22;7462;53.530;9.414;2023-04-28T04:48:59;5.40;99.90
14741;DHT22;7462;53.530;9.414;2023-04-28T04:51:27;5.50;99.90
14741;DHT22;7462;53.530;9.414;2023-04-28T04:53:55;5.50;99.90
14741;DHT22;7462;53.530;9.414;2023-04-28T04:56:23;5.60;99.90
14741;DHT22;7462;53.530;9.414;2023-04-28T04:58:51;5.50;99.90
14741;DHT22;7462;53.530;9.414;2023-04-28T05:01:45;5.60;99.90
14741;DHT22;7462;53.530;9.414;2023-04-28T05:04:14;5.70;99.90
14741;DHT22;7462;53.530;9.414;2023-04-28T05:06:43;5.70;99.90
14741;DHT22;7462;53.530;9.414;2023-04-28T05:09:11;5.70;99.90
14741;DHT22;7462;53.530;9.414;2023-04-28T05:11:40;5.80;99.90
14741;DHT22;7462;53.530;9.414;2023-04-28T05:14:08;5.80;99.90
14741;DHT22;7462;53.530;9.414;2023-04-28T05:16:38;5.80;99.90
14741;DHT22;7462;53.530;9.414;2023-04-28T05:19:11;5.90;99.90
14741;DHT22;7462;53.530;9.414;2023-04-28T05:21:39;6.00;99.90
14741;DHT22;7462;53.530;9.414;2023-04-28T05:24:07;6.10;99.90
14741;DHT22;7462;53.530;9.414;2023-04-28T05:26:35;6.20;99.90
14741;DHT22;7462;53.530;9.414;2023-04-28T05:29:07;6.30;99.90
14741;DHT22;7462;53.530;9.414;2023-04-28T05:31:35;6.40;99.90
14741;DHT22;7462;53.530;9.414;2023-04-28T05:34:04;6.50;99.90
14741;DHT22;7462;53.530;9.414;2023-04-28T05:36:33;6.60;99.90
14741;DHT22;7462;53.530;9.414;2023-04-28T05:39:02;6.70;99.90
14741;DHT22;7462;53.530;9.414;2023-04-28T05:41:30;6.90;99.90
14741;DHT22;7462;53.530;9.414;2023-04-28T05:43:58;7.00;99.90
14741;DHT22;7462;53.530;9.414;2023-04-28T05:46:26;7.10;99.90
14741;DHT22;7462;53.530;9.414;2023-04-28T05:48:58;7.20;99.90
14741;DHT22;7462;53.530;9.414;2023-04-28T05:51:33;7.40;99.90
14741;DHT22;7462;53.530;9.414;2023-04-28T05:54:03;7.50;99.90
14741;DHT22;7462;53.530;9.414;2023-04-28T05:56:36;7.50;99.90
14741;DHT22;7462;53.530;9.414;2023-04-28T05:59:04;7.60;99.90
14741;DHT22;7462;53.530;9.414;2023-04-28T06:01:32;7.70;99.90
14741;DHT22;7462;53.530;9.414;2023-04-28T06:04:00;7.80;99.90
14741;DHT22;7462;53.530;9.414;2023-04-28T06:06:29;7.90;99.90
14741;DHT22;7462;53.530;9.414;2023-04-28T06:08:59;8.10;99.90
14741;DHT22;7462;53.530;9.414;2023-04-28T06:11:28;8.30;99.90
14741;DHT22;7462;53.530;9.414;2023-04-28T06:13:57;8.30;99.90
14741;DHT22;7462;53.530;9.414;2023-04-28T06:16:25;8.50;99.90
14741;DHT22;7462;53.530;9.414;2023-04-28T06:18:53;8.50;99.90
14741;DHT22;7462;53.530;9.414;2023-04-28T06:21:22;8.60;99.90
14741;DHT22;7462;53.530;9.414;2023-04-28T06:23:50;8.70;99.90
14741;DHT22;7462;53.530;9.414;2023-04-28T06:26:20;8.80;99.90
14741;DHT22;7462;53.530;9.414;2023-04-28T06:28:48;8.80;99.90
14741;DHT22;7462;53.530;9.414;2023-04-28T06:31:16;9.00;99.90
14741;DHT22;7462;53.530;9.414;2023-04-28T06:33:44;9.00;99.90
14741;DHT22;7462;53.530;9.414;2023-04-28T06:36:13;9.00;99.90
14741;DHT22;7462;53.530;9.414;2023-04-28T06:38:43;9.20;99.90
14741;DHT22;7462;53.530;9.414;2023-04-28T06:41:12;9.30;99.90
14741;DHT22;7462;53.530;9.414;2023-04-28T06:43:44;9.40;99.90
14741;DHT22;7462;53.530;9.414;2023-04-28T06:46:28;9.40;99.90
14741;DHT22;7462;53.530;9.414;2023-04-28T06:48:57;9.90;99.90
14741;DHT22;7462;53.530;9.414;2023-04-28T06:51:26;10.20;99.90
14741;DHT22;7462;53.530;9.414;2023-04-28T06:53:54;10.50;99.90
14741;DHT22;7462;53.530;9.414;2023-04-28T06:56:23;10.40;99.90
14741;DHT22;7462;53.530;9.414;2023-04-28T06:58:54;10.50;99.90
14741;DHT22;7462;53.530;9.414;2023-04-28T07:01:22;10.70;99.90
14741;DHT22;7462;53.530;9.414;2023-04-28T07:03:51;10.90;99.90
14741;DHT22;7462;53.530;9.414;2023-04-28T07:06:19;11.10;99.90
14741;DHT22;7462;53.530;9.414;2023-04-28T07:08:47;11.30;99.90
14741;DHT22;7462;53.530;9.414;2023-04-28T07:11:15;11.40;99.90
14741;DHT22;7462;53.530;9.414;2023-04-28T07:13:43;11.40;99.90
14741;DHT22;7462;53.530;9.414;2023-04-28T07:16:16;11.60;99.90
14741;DHT22;7462;53.530;9.414;2023-04-28T07:18:44;11.60;99.90
14741;DHT22;7462;53.530;9.414;2023-04-28T07:21:12;11.70;99.90
14741;DHT22;7462;53.530;9.414;2023-04-28T07:23:41;11.50;99.90
14741;DHT22;7462;53.530;9.414;2023-04-28T07:26:09;11.50;99.90
14741;DHT22;7462;53.530;9.414;2023-04-28T07:28:40;11.30;99.90
14741;DHT22;7462;53.530;9.414;2023-04-28T07:31:08;11.20;99.90
14741;DHT22;7462;53.530;9.414;2023-04-28T07:33:38;11.10;99.90
14741;DHT22;7462;53.530;9.414;2023-04-28T07:36:07;11.00;99.90
14741;DHT22;7462;53.530;9.414;2023-04-28T07:38:35;11.00;99.90
14741;DHT22;7462;53.530;9.414;2023-04-28T07:41:04;11.00;99.90
14741;DHT22;7462;53.530;9.414;2023-04-28T07:43:36;11.10;99.90
14741;DHT22;7462;53.530;9.414;2023-04-28T07:46:05;11.10;99.90
14741;DHT22;7462;53.530;9.414;2023-04-28T07:48:34;11.30;99.90
14741;DHT22;7462;53.530;9.414;2023-04-28T07:51:03;11.40;99.90
14741;DHT22;7462;53.530;9.414;2023-04-28T07:53:32;11.60;99.90
14741;DHT22;7462;53.530;9.414;2023-04-28T07:56:00;11.70;99.90
14741;DHT22;7462;53.530;9.414;2023-04-28T07:58:28;11.70;99.90
14741;DHT22;7462;53.530;9.414;2023-04-28T08:00:56;11.90;99.90
14741;DHT22;7462;53.530;9.414;2023-04-28T08:03:24;12.00;99.90
14741;DHT22;7462;53.530;9.414;2023-04-28T08:05:53;12.00;99.90
14741;DHT22;7462;53.530;9.414;2023-04-28T08:08:23;12.00;99.90
14741;DHT22;7462;53.530;9.414;2023-04-28T08:10:58;11.90;99.90
14741;DHT22;7462;53.530;9.414;2023-04-28T08:13:27;11.90;99.90
14741;DHT22;7462;53.530;9.414;2023-04-28T08:15:55;12.10;99.90
14741;DHT22;7462;53.530;9.414;2023-04-28T08:18:24;12.10;99.90
14741;DHT22;7462;53.530;9.414;2023-04-28T08:20:52;12.20;99.90
14741;DHT22;7462;53.530;9.414;2023-04-28T08:23:20;12.20;99.90
14741;DHT22;7462;53.530;9.414;2023-04-28T08:25:50;12.20;99.90
14741;DHT22;7462;53.530;9.414;2023-04-28T08:28:18;12.40;99.90
14741;DHT22;7462;53.530;9.414;2023-04-28T08:30:46;12.60;99.90
14741;DHT22;7462;53.530;9.414;2023-04-28T08:33:15;12.70;99.90
14741;DHT22;7462;53.530;9.414;2023-04-28T08:35:43;12.60;99.90
14741;DHT22;7462;53.530;9.414;2023-04-28T08:38:11;12.60;99.90
14741;DHT22;7462;53.530;9.414;2023-04-28T08:40:40;12.60;99.90
14741;DHT22;7462;53.530;9.414;2023-04-28T08:43:10;12.70;99.90
14741;DHT22;7462;53.530;9.414;2023-04-28T08:45:41;13.00;99.90
14741;DHT22;7462;53.530;9.414;2023-04-28T08:48:16;13.00;99.90
14741;DHT22;7462;53.530;9.414;2023-04-28T08:50:50;13.20;99.90
14741;DHT22;7462;53.530;9.414;2023-04-28T08:53:22;13.20;99.90
14741;DHT22;7462;53.530;9.414;2023-04-28T08:55:53;13.40;99.90
14741;DHT22;7462;53.530;9.414;2023-04-28T08:58:24;13.40;99.90
14741;DHT22;7462;53.530;9.414;2023-04-28T09:00:53;13.50;99.90
14741;DHT22;7462;53.530;9.414;2023-04-28T09:03:21;13.60;99.90
14741;DHT22;7462;53.530;9.414;2023-04-28T09:05:49;13.50;99.90
14741;DHT22;7462;53.530;9.414;2023-04-28T09:08:18;13.50;99.90
14741;DHT22;7462;53.530;9.414;2023-04-28T09:10:46;13.90;99.90
14741;DHT22;7462;53.530;9.414;2023-04-28T09:13:25;13.90;99.90
14741;DHT22;7462;53.530;9.414;2023-04-28T09:15:59;13.70;99.90
14741;DHT22;7462;53.530;9.414;2023-04-28T09:18:27;13.80;99.90
14741;DHT22;7462;53.530;9.414;2023-04-28T09:21:02;13.90;99.90
14741;DHT22;7462;53.530;9.414;2023-04-28T09:23:31;13.70;99.90
14741;DHT22;7462;53.530;9.414;2023-04-28T09:26:02;13.90;99.90
14741;DHT22;7462;53.530;9.414;2023-04-28T09:28:32;14.00;99.90
14741;DHT22;7462;53.530;9.414;2023-04-28T09:31:01;13.80;99.90
14741;DHT22;7462;53.530;9.414;2023-04-28T09:33:29;13.80;99.90
14741;DHT22;7462;53.530;9.414;2023-04-28T09:35:57;13.80;99.90
14741;DHT22;7462;53.530;9.414;2023-04-28T09:38:25;13.80;99.90
14741;DHT22;7462;53.530;9.414;2023-04-28T09:40:55;13.70;99.90
14741;DHT22;7462;53.530;9.414;2023-04-28T09:43:25;13.80;99.90
14741;DHT22;7462;53.530;9.414;2023-04-28T09:45:58;13.60;99.90
14741;DHT22;7462;53.530;9.414;2023-04-28T09:48:31;13.50;99.90
14741;DHT22;7462;53.530;9.414;2023-04-28T09:51:01;13.50;99.90
14741;DHT22;7462;53.530;9.414;2023-04-28T09:53:30;13.70;99.90
14741;DHT22;7462;53.530;9.414;2023-04-28T09:56:01;13.80;99.90
14741;DHT22;7462;53.530;9.414;2023-04-28T09:58:31;13.70;99.90
14741;DHT22;7462;53.530;9.414;2023-04-28T10:01:03;13.60;99.90
14741;DHT22;7462;53.530;9.414;2023-04-28T10:03:33;13.70;99.90
14741;DHT22;7462;53.530;9.414;2023-04-28T10:06:02;13.80;99.90
14741;DHT22;7462;53.530;9.414;2023-04-28T10:08:30;13.80;99.90
14741;DHT22;7462;53.530;9.414;2023-04-28T10:10:59;14.20;99.90
14741;DHT22;7462;53.530;9.414;2023-04-28T10:13:28;14.40;99.90
14741;DHT22;7462;53.530;9.414;2023-04-28T10:15:56;14.60;99.90
14741;DHT22;7462;53.530;9.414;2023-04-28T10:18:26;14.60;99.90
14741;DHT22;7462;53.530;9.414;2023-04-28T10:20:58;14.50;99.90
14741;DHT22;7462;53.530;9.414;2023-04-28T10:23:59;14.50;99.90
14741;DHT22;7462;53.530;9.414;2023-04-28T10:26:56;14.40;99.90
14741;DHT22;7462;53.530;9.414;2023-04-28T10:29:26;14.30;99.90
14741;DHT22;7462;53.530;9.414;2023-04-28T10:32:13;14.20;99.90
14741;DHT22;7462;53.530;9.414;2023-04-28T10:34:43;14.40;99.90
14741;DHT22;7462;53.530;9.414;2023-04-28T10:37:12;14.30;99.90
14741;DHT22;7462;53.530;9.414;2023-04-28T10:42:52;14.30;99.90
14741;DHT22;7462;53.530;9.414;2023-04-28T10:45:58;14.20;99.90
14741;DHT22;7462;53.530;9.414;2023-04-28T10:48:52;14.10;99.90
14741;DHT22;7462;53.530;9.414;2023-04-28T10:51:27;14.20;99.90
14741;DHT22;7462;53.530;9.414;2023-04-28T10:54:15;14.20;99.90
14741;DHT22;7462;53.530;9.414;2023-04-28T10:57:20;14.20;99.90
14741;DHT22;7462;53.530;9.414;2023-04-28T10:59:49;14.30;99.90
14741;DHT22;7462;53.530;9.414;2023-04-28T11:02:47;14.30;99.90
14741;DHT22;7462;53.530;9.414;2023-04-28T11:05:18;14.40;99.90
14741;DHT22;7462;53.530;9.414;2023-04-28T11:11:20;14.60;99.90
14741;DHT22;7462;53.530;9.414;2023-04-28T11:13:49;14.50;99.90
14741;DHT22;7462;53.530;9.414;2023-04-28T11:16:20;14.60;99.90
14741;DHT22;7462;53.530;9.414;2023-04-28T11:18:54;14.80;99.90
14741;DHT22;7462;53.530;9.414;2023-04-28T11:21:23;14.90;99.90
14741;DHT22;7462;53.530;9.414;2023-04-28T11:23:52;14.80;99.90
14741;DHT22;7462;53.530;9.414;2023-04-28T11:26:21;14.70;99.90
14741;DHT22;7462;53.530;9.414;2023-04-28T11:28:51;14.60;99.90
14741;DHT22;7462;53.530;9.414;2023-04-28T11:31:21;14.50;99.90
14741;DHT22;7462;53.530;9.414;2023-04-28T11:33:57;14.60;99.90
14741;DHT22;7462;53.530;9.414;2023-04-28T11:36:27;14.80;99.90
14741;DHT22;7462;53.530;9.414;2023-04-28T11:38:56;14.80;99.90
14741;DHT22;7462;53.530;9.414;2023-04-28T11:41:26;14.80;99.90
14741;DHT22;7462;53.530;9.414;2023-04-28T11:43:54;14.80;99.90
14741;DHT22;7462;53.530;9.414;2023-04-28T11:46:23;14.70;99.90
14741;DHT22;7462;53.530;9.414;2023-04-28T11:49:03;14.60;99.90
14741;DHT22;7462;53.530;9.414;2023-04-28T11:51:35;14.50;99.90
14741;DHT22;7462;53.530;9.414;2023-04-28T11:54:05;14.50;99.90
14741;DHT22;7462;53.530;9.414;2023-04-28T11:56:39;14.50;99.90
14741;DHT22;7462;53.530;9.414;2023-04-28T11:59:09;14.50;99.90
14741;DHT22;7462;53.530;9.414;2023-04-28T12:01:48;14.50;99.90
14741;DHT22;7462;53.530;9.414;2023-04-28T12:04:27;14.50;99.90
14741;DHT22;7462;53.530;9.414;2023-04-28T12:07:00;14.60;99.90
14741;DHT22;7462;53.530;9.414;2023-04-28T12:09:29;14.50;99.90
14741;DHT22;7462;53.530;9.414;2023-04-28T12:12:01;14.60;99.90
14741;DHT22;7462;53.530;9.414;2023-04-28T12:14:31;14.40;99.90
14741;DHT22;7462;53.530;9.414;2023-04-28T12:17:01;14.50;99.90
14741;DHT22;7462;53.530;9.414;2023-04-28T12:19:42;14.60;99.90
14741;DHT22;7462;53.530;9.414;2023-04-28T12:22:11;14.60;99.90
14741;DHT22;7462;53.530;9.414;2023-04-28T12:24:44;14.50;99.90
14741;DHT22;7462;53.530;9.414;2023-04-28T12:27:15;14.50;99.90
14741;DHT22;7462;53.530;9.414;2023-04-28T12:29:44;14.50;99.90
14741;DHT22;7462;53.530;9.414;2023-04-28T12:32:13;14.50;99.90
14741;DHT22;7462;53.530;9.414;2023-04-28T12:34:44;14.40;99.90
14741;DHT22;7462;53.530;9.414;2023-04-28T12:37:12;14.30;99.90
14741;DHT22;7462;53.530;9.414;2023-04-28T12:39:41;14.30;99.90
14741;DHT22;7462;53.530;9.414;2023-04-28T12:42:10;14.10;99.90
14741;DHT22;7462;53.530;9.414;2023-04-28T12:44:39;14.20;99.90
14741;DHT22;7462;53.530;9.414;2023-04-28T12:47:08;14.20;99.90
14741;DHT22;7462;53.530;9.414;2023-04-28T12:49:38;14.20;99.90
14741;DHT22;7462;53.530;9.414;2023-04-28T12:52:07;14.20;99.90
14741;DHT22;7462;53.530;9.414;2023-04-28T12:54:35;14.20;99.90
14741;DHT22;7462;53.530;9.414;2023-04-28T12:57:04;14.00;99.90
14741;DHT22;7462;53.530;9.414;2023-04-28T12:59:32;14.00;99.90
14741;DHT22;7462;53.530;9.414;2023-04-28T13:02:02;13.90;99.90
14741;DHT22;7462;53.530;9.414;2023-04-28T13:04:30;13.80;99.90
14741;DHT22;7462;53.530;9.414;2023-04-28T13:06:59;13.80;99.90
14741;DHT22;7462;53.530;9.414;2023-04-28T13:09:27;14.00;99.90
14741;DHT22;7462;53.530;9.414;2023-04-28T13:11:56;14.20;99.90
14741;DHT22;7462;53.530;9.414;2023-04-28T13:14:25;14.20;99.90
14741;DHT22;7462;53.530;9.414;2023-04-28T13:16:54;14.00;99.90
14741;DHT22;7462;53.530;9.414;2023-04-28T13:19:24;13.80;99.90
14741;DHT22;7462;53.530;9.414;2023-04-28T13:21:53;13.70;99.90
14741;DHT22;7462;53.530;9.414;2023-04-28T13:24:22;13.70;99.90
14741;DHT22;7462;53.530;9.414;2023-04-28T13:26:50;13.70;99.90
14741;DHT22;7462;53.530;9.414;2023-04-28T13:29:19;13.60;99.90
14741;DHT22;7462;53.530;9.414;2023-04-28T13:31:48;13.50;99.90
14741;DHT22;7462;53.530;9.414;2023-04-28T13:34:17;13.50;99.90
14741;DHT22;7462;53.530;9.414;2023-04-28T13:36:48;13.50;99.90
14741;DHT22;7462;53.530;9.414;2023-04-28T13:39:18;13.60;99.90
14741;DHT22;7462;53.530;9.414;2023-04-28T13:41:49;13.60;99.90
14741;DHT22;7462;53.530;9.414;2023-04-28T13:44:19;13.60;99.90
14741;DHT22;7462;53.530;9.414;2023-04-28T13:46:48;13.60;99.90
14741;DHT22;7462;53.530;9.414;2023-04-28T13:49:18;13.70;99.90
14741;DHT22;7462;53.530;9.414;2023-04-28T13:51:51;13.80;99.90
14741;DHT22;7462;53.530;9.414;2023-04-28T13:54:24;13.90;99.90
14741;DHT22;7462;53.530;9.414;2023-04-28T13:56:57;14.00;99.90
14741;DHT22;7462;53.530;9.414;2023-04-28T13:59:26;14.20;99.90
14741;DHT22;7462;53.530;9.414;2023-04-28T14:01:56;14.10;99.90
14741;DHT22;7462;53.530;9.414;2023-04-28T14:04:25;14.10;99.90
14741;DHT22;7462;53.530;9.414;2023-04-28T14:06:57;14.00;99.90
14741;DHT22;7462;53.530;9.414;2023-04-28T14:09:26;14.00;99.90
14741;DHT22;7462;53.530;9.414;2023-04-28T14:11:56;14.00;99.90
14741;DHT22;7462;53.530;9.414;2023-04-28T14:14:26;14.10;99.90
14741;DHT22;7462;53.530;9.414;2023-04-28T14:16:56;14.20;99.90
14741;DHT22;7462;53.530;9.414;2023-04-28T14:19:25;14.20;99.90
14741;DHT22;7462;53.530;9.414;2023-04-28T14:21:57;14.30;99.90
14741;DHT22;7462;53.530;9.414;2023-04-28T14:24:27;14.10;99.90
14741;DHT22;7462;53.530;9.414;2023-04-28T14:26:57;14.00;99.90
14741;DHT22;7462;53.530;9.414;2023-04-28T14:29:25;14.00;99.90
14741;DHT22;7462;53.530;9.414;2023-04-28T14:31:53;14.00;99.90
14741;DHT22;7462;53.530;9.414;2023-04-28T14:34:21;13.90;99.90
14741;DHT22;7462;53.530;9.414;2023-04-28T14:36:50;13.80;99.90
14741;DHT22;7462;53.530;9.414;2023-04-28T14:39:20;13.60;99.90
14741;DHT22;7462;53.530;9.414;2023-04-28T14:41:48;13.40;99.90
14741;DHT22;7462;53.530;9.414;2023-04-28T14:44:16;13.40;99.90
14741;DHT22;7462;53.530;9.414;2023-04-28T14:46:44;13.20;99.90
14741;DHT22;7462;53.530;9.414;2023-04-28T14:49:12;13.10;99.90
14741;DHT22;7462;53.530;9.414;2023-04-28T14:51:41;13.00;99.90
14741;DHT22;7462;53.530;9.414;2023-04-28T14:54:09;12.90;99.90
14741;DHT22;7462;53.530;9.414;2023-04-28T14:56:38;12.90;99.90
14741;DHT22;7462;53.530;9.414;2023-04-28T14:59:06;12.90;99.90
14741;DHT22;7462;53.530;9.414;2023-04-28T15:01:35;12.90;99.90
14741;DHT22;7462;53.530;9.414;2023-04-28T15:04:04;12.90;99.90
14741;DHT22;7462;53.530;9.414;2023-04-28T15:06:32;13.00;99.90
14741;DHT22;7462;53.530;9.414;2023-04-28T15:09:00;13.10;99.90
14741;DHT22;7462;53.530;9.414;2023-04-28T15:11:31;13.20;99.90
14741;DHT22;7462;53.530;9.414;2023-04-28T15:14:00;13.20;99.90
14741;DHT22;7462;53.530;9.414;2023-04-28T15:16:29;13.20;99.90
14741;DHT22;7462;53.530;9.414;2023-04-28T15:18:57;13.30;99.90
14741;DHT22;7462;53.530;9.414;2023-04-28T15:21:26;13.40;99.90
14741;DHT22;7462;53.530;9.414;2023-04-28T15:23:55;13.50;99.90
14741;DHT22;7462;53.530;9.414;2023-04-28T15:26:24;13.60;99.90
14741;DHT22;7462;53.530;9.414;2023-04-28T15:28:55;13.50;99.90
14741;DHT22;7462;53.530;9.414;2023-04-28T15:31:25;13.40;99.90
14741;DHT22;7462;53.530;9.414;2023-04-28T15:33:54;13.20;99.90
14741;DHT22;7462;53.530;9.414;2023-04-28T15:36:24;13.10;99.90
14741;DHT22;7462;53.530;9.414;2023-04-28T15:38:54;12.90;99.90
14741;DHT22;7462;53.530;9.414;2023-04-28T15:41:22;12.90;99.90
14741;DHT22;7462;53.530;9.414;2023-04-28T15:43:50;12.80;99.90
14741;DHT22;7462;53.530;9.414;2023-04-28T15:46:19;12.70;99.90
14741;DHT22;7462;53.530;9.414;2023-04-28T15:48:48;12.70;99.90
14741;DHT22;7462;53.530;9.414;2023-04-28T15:51:16;12.60;99.90
14741;DHT22;7462;53.530;9.414;2023-04-28T15:53:44;12.60;99.90
14741;DHT22;7462;53.530;9.414;2023-04-28T15:56:12;12.60;99.90
14741;DHT22;7462;53.530;9.414;2023-04-28T15:58:43;12.50;99.90
14741;DHT22;7462;53.530;9.414;2023-04-28T16:01:11;12.50;99.90
14741;DHT22;7462;53.530;9.414;2023-04-28T16:03:39;12.40;99.90
14741;DHT22;7462;53.530;9.414;2023-04-28T16:06:10;12.40;99.90
14741;DHT22;7462;53.530;9.414;2023-04-28T16:08:38;12.40;99.90
14741;DHT22;7462;53.530;9.414;2023-04-28T16:11:09;12.30;99.90
14741;DHT22;7462;53.530;9.414;2023-04-28T16:13:37;12.20;99.90
14741;DHT22;7462;53.530;9.414;2023-04-28T16:16:05;12.20;99.90